KOLF/OLF METAR and TAF weather

Enter ICAO airport designator
Station Type Date Time Source
KOLF METAR 2021/07/27 20:53 UTC NOAA

KOLF 272053Z AUTO 00000KT 10SM CLR 37/08 A2985 RMK AO2 SLP093 T03670083 57003


Station Type Date Time Source
KOLF Decoded METAR 2021/07/27 20:53 UTC NOAA

WOLF POINT CLAYTON AIRPORT, MT, United States (KOLF) 48-06N 105-35W 604M
Jul 27, 2021 - 04:53 PM EDT / 2021.07.27 2053 UTC
Wind: Calm:0
Visibility: 10 mile(s):0
Sky conditions: clear
Temperature: 98.1 F (36.7 C)
Heat index: 94.3 F (34.6 C):1
Dew Point: 46.9 F (8.3 C)
Relative Humidity: 17%
Pressure (altimeter): 29.85 in. Hg (1010 hPa)
Pressure tendency: 0.01 inches (0.3 hPa) lower than three hours ago
ob: KOLF 272053Z AUTO 00000KT 10SM CLR 37/08 A2985 RMK AO2 SLP093 T03670083 57003
cycle: 21

Station Type Date Time Source
KOLF TAF 2021/07/27 18:28 UTC NOAA

TAF KOLF 271726Z 2718/2818 VRB04KT 6SM HZ SCT150
FM280100 33008KT 6SM HZ SCT150

Example: see airport list